sensor_id;sensor_type;location;lat;lon;timestamp;temperature;humidity
1337;DHT22;662;48.814;9.318;2023-09-19T00:00:19;19.90;65.50
1337;DHT22;662;48.814;9.318;2023-09-19T00:03:06;19.90;65.60
1337;DHT22;662;48.814;9.318;2023-09-19T00:05:34;19.90;65.80
1337;DHT22;662;48.814;9.318;2023-09-19T00:08:01;19.90;66.00
1337;DHT22;662;48.814;9.318;2023-09-19T00:10:32;19.90;66.30
1337;DHT22;662;48.814;9.318;2023-09-19T00:13:00;19.80;67.10
1337;DHT22;662;48.814;9.318;2023-09-19T00:15:31;19.90;66.70
1337;DHT22;662;48.814;9.318;2023-09-19T00:18:00;19.80;67.00
1337;DHT22;662;48.814;9.318;2023-09-19T00:20:26;19.70;67.30
1337;DHT22;662;48.814;9.318;2023-09-19T00:22:52;19.70;67.70
1337;DHT22;662;48.814;9.318;2023-09-19T00:25:19;19.70;67.90
1337;DHT22;662;48.814;9.318;2023-09-19T00:27:45;19.60;68.20
1337;DHT22;662;48.814;9.318;2023-09-19T00:30:15;19.60;68.50
1337;DHT22;662;48.814;9.318;2023-09-19T00:32:42;19.60;68.60
1337;DHT22;662;48.814;9.318;2023-09-19T00:35:08;19.50;68.60
1337;DHT22;662;48.814;9.318;2023-09-19T00:37:36;19.50;68.80
1337;DHT22;662;48.814;9.318;2023-09-19T00:40:09;19.40;68.90
1337;DHT22;662;48.814;9.318;2023-09-19T00:42:48;19.40;68.90
1337;DHT22;662;48.814;9.318;2023-09-19T00:45:15;19.40;69.10
1337;DHT22;662;48.814;9.318;2023-09-19T00:47:47;19.40;69.10
1337;DHT22;662;48.814;9.318;2023-09-19T00:50:20;19.40;69.20
1337;DHT22;662;48.814;9.318;2023-09-19T00:52:48;19.30;69.00
1337;DHT22;662;48.814;9.318;2023-09-19T00:55:16;19.30;69.00
1337;DHT22;662;48.814;9.318;2023-09-19T00:57:42;19.30;69.00
1337;DHT22;662;48.814;9.318;2023-09-19T01:00:10;19.30;69.10
1337;DHT22;662;48.814;9.318;2023-09-19T01:02:37;19.30;69.20
1337;DHT22;662;48.814;9.318;2023-09-19T01:05:03;19.30;69.20
1337;DHT22;662;48.814;9.318;2023-09-19T01:07:31;19.30;69.20
1337;DHT22;662;48.814;9.318;2023-09-19T01:09:57;19.30;69.10
1337;DHT22;662;48.814;9.318;2023-09-19T01:12:55;19.30;69.00
1337;DHT22;662;48.814;9.318;2023-09-19T01:20:57;19.30;68.80
1337;DHT22;662;48.814;9.318;2023-09-19T01:27:02;19.30;68.70
1337;DHT22;662;48.814;9.318;2023-09-19T01:29:37;19.30;68.40
1337;DHT22;662;48.814;9.318;2023-09-19T01:32:06;19.20;68.10
1337;DHT22;662;48.814;9.318;2023-09-19T01:37:11;19.30;68.20
1337;DHT22;662;48.814;9.318;2023-09-19T01:39:37;19.30;68.10
1337;DHT22;662;48.814;9.318;2023-09-19T01:42:31;19.30;68.10
1337;DHT22;662;48.814;9.318;2023-09-19T01:47:53;19.30;67.90
1337;DHT22;662;48.814;9.318;2023-09-19T01:50:47;19.40;67.90
1337;DHT22;662;48.814;9.318;2023-09-19T01:53:26;19.40;67.90
1337;DHT22;662;48.814;9.318;2023-09-19T01:55:57;19.40;67.70
1337;DHT22;662;48.814;9.318;2023-09-19T01:58:46;19.40;67.60
1337;DHT22;662;48.814;9.318;2023-09-19T02:01:17;19.40;67.40
1337;DHT22;662;48.814;9.318;2023-09-19T02:03:44;19.40;67.30
1337;DHT22;662;48.814;9.318;2023-09-19T02:06:18;19.40;67.30
1337;DHT22;662;48.814;9.318;2023-09-19T02:08:45;19.40;67.10
1337;DHT22;662;48.814;9.318;2023-09-19T02:11:11;19.50;66.80
1337;DHT22;662;48.814;9.318;2023-09-19T02:13:37;19.50;66.80
1337;DHT22;662;48.814;9.318;2023-09-19T02:16:03;19.50;66.80
1337;DHT22;662;48.814;9.318;2023-09-19T02:18:30;19.50;66.80
1337;DHT22;662;48.814;9.318;2023-09-19T02:20:56;19.40;66.50
1337;DHT22;662;48.814;9.318;2023-09-19T02:23:24;19.50;66.50
1337;DHT22;662;48.814;9.318;2023-09-19T02:25:56;19.50;66.60
1337;DHT22;662;48.814;9.318;2023-09-19T02:28:29;19.50;66.50
1337;DHT22;662;48.814;9.318;2023-09-19T02:30:58;19.50;66.50
1337;DHT22;662;48.814;9.318;2023-09-19T02:33:24;19.50;66.60
1337;DHT22;662;48.814;9.318;2023-09-19T02:35:54;19.50;66.60
1337;DHT22;662;48.814;9.318;2023-09-19T02:38:19;19.50;66.50
1337;DHT22;662;48.814;9.318;2023-09-19T02:40:50;19.60;66.30
1337;DHT22;662;48.814;9.318;2023-09-19T02:43:15;19.60;66.30
1337;DHT22;662;48.814;9.318;2023-09-19T02:45:42;19.60;66.20
1337;DHT22;662;48.814;9.318;2023-09-19T02:48:08;19.50;66.20
1337;DHT22;662;48.814;9.318;2023-09-19T02:50:33;19.50;66.10
1337;DHT22;662;48.814;9.318;2023-09-19T02:52:59;19.50;66.10
1337;DHT22;662;48.814;9.318;2023-09-19T02:55:25;19.50;66.20
1337;DHT22;662;48.814;9.318;2023-09-19T02:57:54;19.40;66.10
1337;DHT22;662;48.814;9.318;2023-09-19T03:00:23;19.40;66.20
1337;DHT22;662;48.814;9.318;2023-09-19T03:02:50;19.40;66.30
1337;DHT22;662;48.814;9.318;2023-09-19T03:05:17;19.40;66.40
1337;DHT22;662;48.814;9.318;2023-09-19T03:07:43;19.40;66.50
1337;DHT22;662;48.814;9.318;2023-09-19T03:10:11;19.30;66.50
1337;DHT22;662;48.814;9.318;2023-09-19T03:12:36;19.30;66.60
1337;DHT22;662;48.814;9.318;2023-09-19T03:15:03;19.30;66.70
1337;DHT22;662;48.814;9.318;2023-09-19T03:17:30;19.30;66.80
1337;DHT22;662;48.814;9.318;2023-09-19T03:19:55;19.30;66.80
1337;DHT22;662;48.814;9.318;2023-09-19T03:22:22;19.30;66.80
1337;DHT22;662;48.814;9.318;2023-09-19T03:24:50;19.30;66.90
1337;DHT22;662;48.814;9.318;2023-09-19T03:27:15;19.30;66.90
1337;DHT22;662;48.814;9.318;2023-09-19T03:29:42;19.30;66.90
1337;DHT22;662;48.814;9.318;2023-09-19T03:32:08;19.40;67.00
1337;DHT22;662;48.814;9.318;2023-09-19T03:34:36;19.40;67.70
1337;DHT22;662;48.814;9.318;2023-09-19T03:37:03;19.40;66.80
1337;DHT22;662;48.814;9.318;2023-09-19T03:39:29;19.40;66.80
1337;DHT22;662;48.814;9.318;2023-09-19T03:41:55;19.40;66.70
1337;DHT22;662;48.814;9.318;2023-09-19T03:44:20;19.40;66.70
1337;DHT22;662;48.814;9.318;2023-09-19T03:46:46;19.40;66.70
1337;DHT22;662;48.814;9.318;2023-09-19T03:49:12;19.40;66.70
1337;DHT22;662;48.814;9.318;2023-09-19T03:51:37;19.40;66.70
1337;DHT22;662;48.814;9.318;2023-09-19T03:54:03;19.40;66.70
1337;DHT22;662;48.814;9.318;2023-09-19T03:56:29;19.40;66.80
1337;DHT22;662;48.814;9.318;2023-09-19T03:58:55;19.40;66.80
1337;DHT22;662;48.814;9.318;2023-09-19T04:01:20;19.40;66.80
1337;DHT22;662;48.814;9.318;2023-09-19T04:03:46;19.40;66.80
1337;DHT22;662;48.814;9.318;2023-09-19T04:06:16;19.40;66.80
1337;DHT22;662;48.814;9.318;2023-09-19T04:08:42;19.40;66.70
1337;DHT22;662;48.814;9.318;2023-09-19T04:11:08;19.40;66.70
1337;DHT22;662;48.814;9.318;2023-09-19T04:13:34;19.50;66.90
1337;DHT22;662;48.814;9.318;2023-09-19T04:16:00;19.50;66.80
1337;DHT22;662;48.814;9.318;2023-09-19T04:18:26;19.50;67.00
1337;DHT22;662;48.814;9.318;2023-09-19T04:20:52;19.50;67.10
1337;DHT22;662;48.814;9.318;2023-09-19T04:23:18;19.50;67.20
1337;DHT22;662;48.814;9.318;2023-09-19T04:25:47;19.50;67.20
1337;DHT22;662;48.814;9.318;2023-09-19T04:28:13;19.50;67.20
1337;DHT22;662;48.814;9.318;2023-09-19T04:30:39;19.50;67.40
1337;DHT22;662;48.814;9.318;2023-09-19T04:33:07;19.50;67.60
1337;DHT22;662;48.814;9.318;2023-09-19T04:35:34;19.50;67.90
1337;DHT22;662;48.814;9.318;2023-09-19T04:38:00;19.50;68.00
1337;DHT22;662;48.814;9.318;2023-09-19T04:40:26;19.50;68.90
1337;DHT22;662;48.814;9.318;2023-09-19T04:42:56;19.50;68.40
1337;DHT22;662;48.814;9.318;2023-09-19T04:45:26;19.50;68.50
1337;DHT22;662;48.814;9.318;2023-09-19T04:47:52;19.50;68.70
1337;DHT22;662;48.814;9.318;2023-09-19T04:50:19;19.50;69.00
1337;DHT22;662;48.814;9.318;2023-09-19T04:52:49;19.50;69.10
1337;DHT22;662;48.814;9.318;2023-09-19T04:55:16;19.50;69.10
1337;DHT22;662;48.814;9.318;2023-09-19T04:57:50;19.50;69.20
1337;DHT22;662;48.814;9.318;2023-09-19T05:00:20;19.50;69.40
1337;DHT22;662;48.814;9.318;2023-09-19T05:02:54;19.50;69.50
1337;DHT22;662;48.814;9.318;2023-09-19T05:05:21;19.50;69.60
1337;DHT22;662;48.814;9.318;2023-09-19T05:07:48;19.50;69.60
1337;DHT22;662;48.814;9.318;2023-09-19T05:10:13;19.50;69.80
1337;DHT22;662;48.814;9.318;2023-09-19T05:12:39;19.50;70.00
1337;DHT22;662;48.814;9.318;2023-09-19T05:15:06;19.50;70.10
1337;DHT22;662;48.814;9.318;2023-09-19T05:17:35;19.40;69.90
1337;DHT22;662;48.814;9.318;2023-09-19T05:20:01;19.40;70.30
1337;DHT22;662;48.814;9.318;2023-09-19T05:22:41;19.20;70.60
1337;DHT22;662;48.814;9.318;2023-09-19T05:25:09;19.10;71.20
1337;DHT22;662;48.814;9.318;2023-09-19T05:27:34;19.10;71.90
1337;DHT22;662;48.814;9.318;2023-09-19T05:30:00;19.00;72.50
1337;DHT22;662;48.814;9.318;2023-09-19T05:32:25;19.00;73.00
1337;DHT22;662;48.814;9.318;2023-09-19T05:34:51;18.90;73.40
1337;DHT22;662;48.814;9.318;2023-09-19T05:37:22;18.90;73.70
1337;DHT22;662;48.814;9.318;2023-09-19T05:39:49;18.80;74.00
1337;DHT22;662;48.814;9.318;2023-09-19T05:42:14;18.80;74.30
1337;DHT22;662;48.814;9.318;2023-09-19T05:44:40;18.80;74.60
1337;DHT22;662;48.814;9.318;2023-09-19T05:47:05;18.80;74.70
1337;DHT22;662;48.814;9.318;2023-09-19T05:49:35;18.90;74.90
1337;DHT22;662;48.814;9.318;2023-09-19T05:52:07;18.80;75.00
1337;DHT22;662;48.814;9.318;2023-09-19T05:54:33;18.80;75.30
1337;DHT22;662;48.814;9.318;2023-09-19T05:57:03;18.70;75.30
1337;DHT22;662;48.814;9.318;2023-09-19T05:59:28;18.60;75.10
1337;DHT22;662;48.814;9.318;2023-09-19T06:01:54;18.60;75.40
1337;DHT22;662;48.814;9.318;2023-09-19T06:04:20;18.60;75.80
1337;DHT22;662;48.814;9.318;2023-09-19T06:06:46;18.50;75.80
1337;DHT22;662;48.814;9.318;2023-09-19T06:09:14;18.40;76.00
1337;DHT22;662;48.814;9.318;2023-09-19T06:11:43;18.30;76.30
1337;DHT22;662;48.814;9.318;2023-09-19T06:14:08;18.20;76.60
1337;DHT22;662;48.814;9.318;2023-09-19T06:16:35;18.10;76.60
1337;DHT22;662;48.814;9.318;2023-09-19T06:19:04;17.90;76.90
1337;DHT22;662;48.814;9.318;2023-09-19T06:21:34;17.80;77.20
1337;DHT22;662;48.814;9.318;2023-09-19T06:24:00;17.70;77.20
1337;DHT22;662;48.814;9.318;2023-09-19T06:26:25;17.60;77.40
1337;DHT22;662;48.814;9.318;2023-09-19T06:28:52;17.60;77.80
1337;DHT22;662;48.814;9.318;2023-09-19T06:31:18;17.60;78.00
1337;DHT22;662;48.814;9.318;2023-09-19T06:33:43;17.50;77.50
1337;DHT22;662;48.814;9.318;2023-09-19T06:36:09;17.40;77.50
1337;DHT22;662;48.814;9.318;2023-09-19T06:38:35;17.40;77.80
1337;DHT22;662;48.814;9.318;2023-09-19T06:41:02;17.30;78.20
1337;DHT22;662;48.814;9.318;2023-09-19T06:43:33;17.30;78.40
1337;DHT22;662;48.814;9.318;2023-09-19T06:46:02;17.30;78.60
1337;DHT22;662;48.814;9.318;2023-09-19T06:48:29;17.30;78.90
1337;DHT22;662;48.814;9.318;2023-09-19T06:50:55;17.30;79.10
1337;DHT22;662;48.814;9.318;2023-09-19T06:53:22;17.30;79.40
1337;DHT22;662;48.814;9.318;2023-09-19T06:55:50;17.40;79.90
1337;DHT22;662;48.814;9.318;2023-09-19T06:58:16;17.40;80.00
1337;DHT22;662;48.814;9.318;2023-09-19T07:00:42;17.40;80.20
1337;DHT22;662;48.814;9.318;2023-09-19T07:03:08;17.50;80.40
1337;DHT22;662;48.814;9.318;2023-09-19T07:05:37;17.50;80.50
1337;DHT22;662;48.814;9.318;2023-09-19T07:08:05;17.50;80.70
1337;DHT22;662;48.814;9.318;2023-09-19T07:10:32;17.60;81.00
1337;DHT22;662;48.814;9.318;2023-09-19T07:13:02;17.70;81.30
1337;DHT22;662;48.814;9.318;2023-09-19T07:15:29;17.80;81.40
1337;DHT22;662;48.814;9.318;2023-09-19T07:17:56;17.90;81.20
1337;DHT22;662;48.814;9.318;2023-09-19T07:20:23;18.00;81.20
1337;DHT22;662;48.814;9.318;2023-09-19T07:22:52;18.10;81.10
1337;DHT22;662;48.814;9.318;2023-09-19T07:25:18;18.20;80.90
1337;DHT22;662;48.814;9.318;2023-09-19T07:27:44;18.20;80.50
1337;DHT22;662;48.814;9.318;2023-09-19T07:30:10;18.20;80.30
1337;DHT22;662;48.814;9.318;2023-09-19T07:32:37;18.30;80.20
1337;DHT22;662;48.814;9.318;2023-09-19T07:35:04;18.40;80.00
1337;DHT22;662;48.814;9.318;2023-09-19T07:37:34;18.40;79.70
1337;DHT22;662;48.814;9.318;2023-09-19T07:40:00;18.40;78.60
1337;DHT22;662;48.814;9.318;2023-09-19T07:42:36;18.40;78.20
1337;DHT22;662;48.814;9.318;2023-09-19T07:45:04;18.40;78.30
1337;DHT22;662;48.814;9.318;2023-09-19T07:47:30;18.50;78.20
1337;DHT22;662;48.814;9.318;2023-09-19T07:49:58;18.50;77.60
1337;DHT22;662;48.814;9.318;2023-09-19T07:52:24;18.50;77.10
1337;DHT22;662;48.814;9.318;2023-09-19T07:54:50;18.60;77.00
1337;DHT22;662;48.814;9.318;2023-09-19T07:57:15;18.60;76.70
1337;DHT22;662;48.814;9.318;2023-09-19T07:59:41;18.70;77.30
1337;DHT22;662;48.814;9.318;2023-09-19T08:02:08;18.90;76.70
1337;DHT22;662;48.814;9.318;2023-09-19T08:04:35;19.00;75.90
1337;DHT22;662;48.814;9.318;2023-09-19T08:07:01;19.00;74.70
1337;DHT22;662;48.814;9.318;2023-09-19T08:09:29;19.00;74.60
1337;DHT22;662;48.814;9.318;2023-09-19T08:11:59;19.10;73.90
1337;DHT22;662;48.814;9.318;2023-09-19T08:14:24;19.10;73.60
1337;DHT22;662;48.814;9.318;2023-09-19T08:16:51;19.10;73.00
1337;DHT22;662;48.814;9.318;2023-09-19T08:19:17;19.20;73.10
1337;DHT22;662;48.814;9.318;2023-09-19T08:21:42;19.20;73.00
1337;DHT22;662;48.814;9.318;2023-09-19T08:24:12;19.40;73.00
1337;DHT22;662;48.814;9.318;2023-09-19T08:26:39;19.40;72.30
1337;DHT22;662;48.814;9.318;2023-09-19T08:29:05;19.50;71.90
1337;DHT22;662;48.814;9.318;2023-09-19T08:31:32;19.70;72.10
1337;DHT22;662;48.814;9.318;2023-09-19T08:33:59;19.80;70.80
1337;DHT22;662;48.814;9.318;2023-09-19T08:36:25;19.90;70.70
1337;DHT22;662;48.814;9.318;2023-09-19T08:38:51;20.00;69.30
1337;DHT22;662;48.814;9.318;2023-09-19T08:41:17;20.20;69.10
1337;DHT22;662;48.814;9.318;2023-09-19T08:43:43;20.30;68.10
1337;DHT22;662;48.814;9.318;2023-09-19T08:46:15;20.50;67.60
1337;DHT22;662;48.814;9.318;2023-09-19T08:48:57;20.80;65.90
1337;DHT22;662;48.814;9.318;2023-09-19T08:51:33;21.60;65.10
1337;DHT22;662;48.814;9.318;2023-09-19T08:54:08;22.50;63.00
1337;DHT22;662;48.814;9.318;2023-09-19T08:56:35;23.10;60.20
1337;DHT22;662;48.814;9.318;2023-09-19T08:59:06;23.30;59.40
1337;DHT22;662;48.814;9.318;2023-09-19T09:01:35;23.40;58.30
1337;DHT22;662;48.814;9.318;2023-09-19T09:04:02;23.40;57.70
1337;DHT22;662;48.814;9.318;2023-09-19T09:06:29;23.60;57.50
1337;DHT22;662;48.814;9.318;2023-09-19T09:08:55;24.20;57.00
1337;DHT22;662;48.814;9.318;2023-09-19T09:11:21;24.50;55.40
1337;DHT22;662;48.814;9.318;2023-09-19T09:13:47;24.80;54.50
1337;DHT22;662;48.814;9.318;2023-09-19T09:16:14;24.80;54.20
1337;DHT22;662;48.814;9.318;2023-09-19T09:18:44;25.30;53.20
1337;DHT22;662;48.814;9.318;2023-09-19T09:21:11;26.20;52.10
1337;DHT22;662;48.814;9.318;2023-09-19T09:23:37;26.90;49.80
1337;DHT22;662;48.814;9.318;2023-09-19T09:26:02;27.30;47.60
1337;DHT22;662;48.814;9.318;2023-09-19T09:28:30;27.50;47.60
1337;DHT22;662;48.814;9.318;2023-09-19T09:30:57;27.80;47.10
1337;DHT22;662;48.814;9.318;2023-09-19T09:33:29;28.00;45.40
1337;DHT22;662;48.814;9.318;2023-09-19T09:35:56;27.60;44.80
1337;DHT22;662;48.814;9.318;2023-09-19T09:38:27;27.40;45.60
1337;DHT22;662;48.814;9.318;2023-09-19T09:40:55;27.70;45.00
1337;DHT22;662;48.814;9.318;2023-09-19T09:43:38;27.80;43.90
1337;DHT22;662;48.814;9.318;2023-09-19T09:46:19;28.00;44.30
1337;DHT22;662;48.814;9.318;2023-09-19T09:51:41;28.60;42.20
1337;DHT22;662;48.814;9.318;2023-09-19T09:54:18;28.90;41.30
1337;DHT22;662;48.814;9.318;2023-09-19T09:57:00;29.30;41.00
1337;DHT22;662;48.814;9.318;2023-09-19T09:59:54;29.60;40.60
1337;DHT22;662;48.814;9.318;2023-09-19T10:02:35;29.90;40.10
1337;DHT22;662;48.814;9.318;2023-09-19T10:05:16;30.00;39.70
1337;DHT22;662;48.814;9.318;2023-09-19T10:07:54;29.40;37.90
1337;DHT22;662;48.814;9.318;2023-09-19T10:10:41;28.70;38.40
1337;DHT22;662;48.814;9.318;2023-09-19T10:13:07;28.10;39.10
1337;DHT22;662;48.814;9.318;2023-09-19T10:15:38;27.50;40.60
1337;DHT22;662;48.814;9.318;2023-09-19T10:18:07;27.20;41.70
1337;DHT22;662;48.814;9.318;2023-09-19T10:20:45;27.00;42.60
1337;DHT22;662;48.814;9.318;2023-09-19T10:23:12;26.70;42.60
1337;DHT22;662;48.814;9.318;2023-09-19T10:25:40;26.50;42.40
1337;DHT22;662;48.814;9.318;2023-09-19T10:28:10;26.30;43.60
1337;DHT22;662;48.814;9.318;2023-09-19T10:30:53;26.10;44.20
1337;DHT22;662;48.814;9.318;2023-09-19T10:33:35;25.80;43.90
1337;DHT22;662;48.814;9.318;2023-09-19T10:36:04;25.50;44.60
1337;DHT22;662;48.814;9.318;2023-09-19T10:38:31;25.30;45.30
1337;DHT22;662;48.814;9.318;2023-09-19T10:40:59;25.10;45.90
1337;DHT22;662;48.814;9.318;2023-09-19T10:43:29;24.90;46.10
1337;DHT22;662;48.814;9.318;2023-09-19T10:46:00;24.70;44.80
1337;DHT22;662;48.814;9.318;2023-09-19T10:48:26;24.40;44.00
1337;DHT22;662;48.814;9.318;2023-09-19T10:51:11;24.20;45.00
1337;DHT22;662;48.814;9.318;2023-09-19T10:53:48;24.00;46.00
1337;DHT22;662;48.814;9.318;2023-09-19T10:56:34;23.90;45.00
1337;DHT22;662;48.814;9.318;2023-09-19T10:59:09;23.80;45.80
1337;DHT22;662;48.814;9.318;2023-09-19T11:02:15;23.70;46.50
1337;DHT22;662;48.814;9.318;2023-09-19T11:04:41;23.70;47.10
1337;DHT22;662;48.814;9.318;2023-09-19T11:07:14;24.00;46.80
1337;DHT22;662;48.814;9.318;2023-09-19T11:09:44;24.40;45.70
1337;DHT22;662;48.814;9.318;2023-09-19T11:15:01;25.80;43.20
1337;DHT22;662;48.814;9.318;2023-09-19T11:17:33;26.50;41.70
1337;DHT22;662;48.814;9.318;2023-09-19T11:30:44;28.10;38.50
1337;DHT22;662;48.814;9.318;2023-09-19T11:33:27;28.10;38.60
1337;DHT22;662;48.814;9.318;2023-09-19T11:43:53;29.60;35.70
1337;DHT22;662;48.814;9.318;2023-09-19T11:46:24;29.70;34.20
1337;DHT22;662;48.814;9.318;2023-09-19T11:48:53;30.00;35.20
1337;DHT22;662;48.814;9.318;2023-09-19T11:51:21;30.20;33.60
1337;DHT22;662;48.814;9.318;2023-09-19T11:53:50;30.50;33.50
1337;DHT22;662;48.814;9.318;2023-09-19T11:56:17;30.40;32.30
1337;DHT22;662;48.814;9.318;2023-09-19T11:58:44;30.30;32.50
1337;DHT22;662;48.814;9.318;2023-09-19T12:01:13;30.10;32.10
1337;DHT22;662;48.814;9.318;2023-09-19T12:03:42;29.90;32.90
1337;DHT22;662;48.814;9.318;2023-09-19T12:06:14;29.90;32.40
1337;DHT22;662;48.814;9.318;2023-09-19T12:08:41;29.80;32.10
1337;DHT22;662;48.814;9.318;2023-09-19T12:11:12;29.70;32.90
1337;DHT22;662;48.814;9.318;2023-09-19T12:13:48;29.60;32.70
1337;DHT22;662;48.814;9.318;2023-09-19T12:16:18;29.50;33.20
1337;DHT22;662;48.814;9.318;2023-09-19T12:18:47;29.60;33.80
1337;DHT22;662;48.814;9.318;2023-09-19T12:21:41;29.90;33.40
1337;DHT22;662;48.814;9.318;2023-09-19T12:24:16;30.20;32.90
1337;DHT22;662;48.814;9.318;2023-09-19T12:26:46;30.30;32.50
1337;DHT22;662;48.814;9.318;2023-09-19T12:29:21;30.50;32.50
1337;DHT22;662;48.814;9.318;2023-09-19T12:31:54;30.70;32.90
1337;DHT22;662;48.814;9.318;2023-09-19T12:34:30;31.10;32.60
1337;DHT22;662;48.814;9.318;2023-09-19T12:37:06;31.60;32.10
1337;DHT22;662;48.814;9.318;2023-09-19T12:39:44;31.80;31.30
1337;DHT22;662;48.814;9.318;2023-09-19T12:42:19;31.80;31.00
1337;DHT22;662;48.814;9.318;2023-09-19T12:44:47;32.00;31.50
1337;DHT22;662;48.814;9.318;2023-09-19T12:47:15;32.10;31.10
1337;DHT22;662;48.814;9.318;2023-09-19T12:50:17;32.00;31.10
1337;DHT22;662;48.814;9.318;2023-09-19T12:52:55;32.00;31.20
1337;DHT22;662;48.814;9.318;2023-09-19T12:55:31;31.80;30.80
1337;DHT22;662;48.814;9.318;2023-09-19T12:58:13;31.80;31.10
1337;DHT22;662;48.814;9.318;2023-09-19T13:00:44;31.70;30.90
1337;DHT22;662;48.814;9.318;2023-09-19T13:05:54;31.60;31.00
1337;DHT22;662;48.814;9.318;2023-09-19T13:08:32;31.50;31.50
1337;DHT22;662;48.814;9.318;2023-09-19T13:11:17;31.40;31.50
1337;DHT22;662;48.814;9.318;2023-09-19T13:13:45;31.60;31.40
1337;DHT22;662;48.814;9.318;2023-09-19T13:16:15;31.50;31.00
1337;DHT22;662;48.814;9.318;2023-09-19T13:18:47;31.40;31.70
1337;DHT22;662;48.814;9.318;2023-09-19T13:21:13;31.50;31.70
1337;DHT22;662;48.814;9.318;2023-09-19T13:23:50;31.30;30.50
1337;DHT22;662;48.814;9.318;2023-09-19T13:26:16;31.40;31.10
1337;DHT22;662;48.814;9.318;2023-09-19T13:28:41;31.40;31.50
1337;DHT22;662;48.814;9.318;2023-09-19T13:31:07;31.20;32.00
1337;DHT22;662;48.814;9.318;2023-09-19T13:33:43;30.80;32.00
1337;DHT22;662;48.814;9.318;2023-09-19T13:36:08;30.30;32.80
1337;DHT22;662;48.814;9.318;2023-09-19T13:38:35;30.50;33.00
1337;DHT22;662;48.814;9.318;2023-09-19T13:41:00;30.40;32.50
1337;DHT22;662;48.814;9.318;2023-09-19T13:43:27;30.10;32.60
1337;DHT22;662;48.814;9.318;2023-09-19T13:45:54;30.20;33.70
1337;DHT22;662;48.814;9.318;2023-09-19T13:48:20;30.40;33.00
1337;DHT22;662;48.814;9.318;2023-09-19T13:50:48;30.40;33.10
1337;DHT22;662;48.814;9.318;2023-09-19T13:53:14;30.50;32.20
1337;DHT22;662;48.814;9.318;2023-09-19T13:55:40;30.50;32.10
1337;DHT22;662;48.814;9.318;2023-09-19T13:58:06;30.30;32.40
1337;DHT22;662;48.814;9.318;2023-09-19T14:00:36;30.40;32.80
1337;DHT22;662;48.814;9.318;2023-09-19T14:03:02;30.40;32.40
1337;DHT22;662;48.814;9.318;2023-09-19T14:05:30;30.30;32.00
1337;DHT22;662;48.814;9.318;2023-09-19T14:07:56;30.40;32.90
1337;DHT22;662;48.814;9.318;2023-09-19T14:10:22;30.60;33.70
1337;DHT22;662;48.814;9.318;2023-09-19T14:12:48;30.80;32.50
1337;DHT22;662;48.814;9.318;2023-09-19T14:15:14;30.70;32.50
1337;DHT22;662;48.814;9.318;2023-09-19T14:17:40;30.70;32.60
1337;DHT22;662;48.814;9.318;2023-09-19T14:20:11;30.70;32.10
1337;DHT22;662;48.814;9.318;2023-09-19T14:22:36;30.80;32.20
1337;DHT22;662;48.814;9.318;2023-09-19T14:25:04;30.60;31.20
1337;DHT22;662;48.814;9.318;2023-09-19T14:27:30;30.20;32.20
1337;DHT22;662;48.814;9.318;2023-09-19T14:29:55;29.90;33.10
1337;DHT22;662;48.814;9.318;2023-09-19T14:32:23;29.80;33.20
1337;DHT22;662;48.814;9.318;2023-09-19T14:34:48;29.50;33.30
1337;DHT22;662;48.814;9.318;2023-09-19T14:37:14;29.10;33.70
1337;DHT22;662;48.814;9.318;2023-09-19T14:39:42;28.70;34.30
1337;DHT22;662;48.814;9.318;2023-09-19T14:42:10;28.30;34.60
1337;DHT22;662;48.814;9.318;2023-09-19T14:44:36;28.00;35.20
1337;DHT22;662;48.814;9.318;2023-09-19T14:47:04;27.70;35.90
1337;DHT22;662;48.814;9.318;2023-09-19T14:49:33;27.40;36.40
1337;DHT22;662;48.814;9.318;2023-09-19T14:52:00;27.30;37.00
1337;DHT22;662;48.814;9.318;2023-09-19T14:54:29;27.20;37.00
1337;DHT22;662;48.814;9.318;2023-09-19T14:56:56;27.00;37.60
1337;DHT22;662;48.814;9.318;2023-09-19T14:59:30;26.90;38.00
1337;DHT22;662;48.814;9.318;2023-09-19T15:01:57;26.80;37.70
1337;DHT22;662;48.814;9.318;2023-09-19T15:04:23;26.60;37.60
1337;DHT22;662;48.814;9.318;2023-09-19T15:06:49;26.50;37.50
1337;DHT22;662;48.814;9.318;2023-09-19T15:09:16;26.30;37.80
1337;DHT22;662;48.814;9.318;2023-09-19T15:11:44;26.10;38.30
1337;DHT22;662;48.814;9.318;2023-09-19T15:14:10;25.90;38.50
1337;DHT22;662;48.814;9.318;2023-09-19T15:16:37;25.70;38.90
1337;DHT22;662;48.814;9.318;2023-09-19T15:19:03;25.60;39.50
1337;DHT22;662;48.814;9.318;2023-09-19T15:21:28;25.50;39.70
1337;DHT22;662;48.814;9.318;2023-09-19T15:23:54;25.40;39.90
1337;DHT22;662;48.814;9.318;2023-09-19T15:26:20;25.20;39.90
1337;DHT22;662;48.814;9.318;2023-09-19T15:28:45;25.20;39.90
1337;DHT22;662;48.814;9.318;2023-09-19T15:31:12;25.00;40.00
1337;DHT22;662;48.814;9.318;2023-09-19T15:33:38;24.90;40.20
1337;DHT22;662;48.814;9.318;2023-09-19T15:36:11;24.90;40.50
1337;DHT22;662;48.814;9.318;2023-09-19T15:39:03;24.90;40.30
1337;DHT22;662;48.814;9.318;2023-09-19T15:41:32;24.90;40.60
1337;DHT22;662;48.814;9.318;2023-09-19T15:44:00;24.80;40.60
1337;DHT22;662;48.814;9.318;2023-09-19T15:46:32;24.80;40.60
1337;DHT22;662;48.814;9.318;2023-09-19T15:49:01;24.80;40.80
1337;DHT22;662;48.814;9.318;2023-09-19T15:51:27;24.80;41.00
1337;DHT22;662;48.814;9.318;2023-09-19T15:53:54;24.80;41.00
1337;DHT22;662;48.814;9.318;2023-09-19T15:56:22;24.70;40.90
1337;DHT22;662;48.814;9.318;2023-09-19T15:58:52;24.70;41.00
1337;DHT22;662;48.814;9.318;2023-09-19T16:01:22;24.60;41.20
1337;DHT22;662;48.814;9.318;2023-09-19T16:03:49;24.50;41.00
1337;DHT22;662;48.814;9.318;2023-09-19T16:06:20;24.40;41.20
1337;DHT22;662;48.814;9.318;2023-09-19T16:08:50;24.40;41.50
1337;DHT22;662;48.814;9.318;2023-09-19T16:11:17;24.40;41.70
1337;DHT22;662;48.814;9.318;2023-09-19T16:13:46;24.30;41.90
1337;DHT22;662;48.814;9.318;2023-09-19T16:16:13;24.30;42.10
1337;DHT22;662;48.814;9.318;2023-09-19T16:18:51;24.30;42.30
1337;DHT22;662;48.814;9.318;2023-09-19T16:21:17;24.20;42.40
1337;DHT22;662;48.814;9.318;2023-09-19T16:23:48;24.20;42.50
1337;DHT22;662;48.814;9.318;2023-09-19T16:26:15;24.10;42.80
1337;DHT22;662;48.814;9.318;2023-09-19T16:28:43;24.00;43.00
1337;DHT22;662;48.814;9.318;2023-09-19T16:31:09;24.00;43.10
1337;DHT22;662;48.814;9.318;2023-09-19T16:33:37;24.00;43.30
1337;DHT22;662;48.814;9.318;2023-09-19T16:36:08;23.90;43.50
1337;DHT22;662;48.814;9.318;2023-09-19T16:38:34;23.90;43.80
1337;DHT22;662;48.814;9.318;2023-09-19T16:41:00;23.90;44.10
1337;DHT22;662;48.814;9.318;2023-09-19T16:43:27;23.80;44.00
1337;DHT22;662;48.814;9.318;2023-09-19T16:45:57;23.80;44.00
1337;DHT22;662;48.814;9.318;2023-09-19T16:48:24;23.80;44.10
1337;DHT22;662;48.814;9.318;2023-09-19T16:50:51;23.70;44.20
1337;DHT22;662;48.814;9.318;2023-09-19T16:53:18;23.70;44.40
1337;DHT22;662;48.814;9.318;2023-09-19T16:55:47;23.60;44.40
1337;DHT22;662;48.814;9.318;2023-09-19T16:58:14;23.60;44.50
1337;DHT22;662;48.814;9.318;2023-09-19T17:00:41;23.60;44.70
1337;DHT22;662;48.814;9.318;2023-09-19T17:03:09;23.50;45.00
1337;DHT22;662;48.814;9.318;2023-09-19T17:05:39;23.50;45.00
1337;DHT22;662;48.814;9.318;2023-09-19T17:08:11;23.50;45.10
1337;DHT22;662;48.814;9.318;2023-09-19T17:10:37;23.40;45.00